createdAt,value
2023-02-24T00:04:51.768Z,9.58
2023-02-24T00:09:53.347Z,9.52
2023-02-24T00:14:54.754Z,9.56
2023-02-24T00:19:56.933Z,9.53
2023-02-24T00:25:02.482Z,9.56
2023-02-24T00:30:05.945Z,9.55
2023-02-24T00:35:08.860Z,9.52
2023-02-24T00:40:11.222Z,9.53
2023-02-24T00:45:12.695Z,9.49
2023-02-24T00:50:14.208Z,9.39
2023-02-24T00:55:15.634Z,9.41
2023-02-24T01:00:17.718Z,9.40
2023-02-24T01:05:20.121Z,9.37
2023-02-24T01:10:23.399Z,9.39
2023-02-24T01:15:25.012Z,9.34
2023-02-24T01:20:30.368Z,9.44
2023-02-24T01:25:31.846Z,9.28
2023-02-24T01:30:33.915Z,9.09
2023-02-24T01:35:35.417Z,9.17
2023-02-24T01:40:37.560Z,9.16
2023-02-24T01:45:41.818Z,9.25
2023-02-24T01:50:45.235Z,9.27
2023-02-24T01:55:50.763Z,9.12
2023-02-24T02:00:52.485Z,9.23
2023-02-24T02:05:59.116Z,9.23
2023-02-24T02:11:06.283Z,9.24
2023-02-24T02:16:35.853Z,9.29
2023-02-24T02:22:17.592Z,9.31
2023-02-24T02:27:49.897Z,9.32
2023-02-24T02:33:21.552Z,9.32
2023-02-24T02:38:32.270Z,9.36
2023-02-24T02:43:49.019Z,9.31
2023-02-24T02:48:57.384Z,9.25
2023-02-24T02:54:16.338Z,9.23
2023-02-24T02:59:22.536Z,9.16
2023-02-24T03:04:26.558Z,9.14
2023-02-24T03:09:36.564Z,9.08
2023-02-24T03:14:43.074Z,9.14
2023-02-24T03:19:46.941Z,9.03
2023-02-24T03:24:48.753Z,9.07
2023-02-24T03:29:55.477Z,9.02
2023-02-24T03:35:04.278Z,8.97
2023-02-24T03:40:14.464Z,9.05
2023-02-24T03:45:17.817Z,9.05
2023-02-24T03:50:22.038Z,9.02
2023-02-24T03:55:33.334Z,9.06
2023-02-24T04:01:00.006Z,9.12
2023-02-24T04:06:11.834Z,9.13
2023-02-24T04:11:41.993Z,9.11
2023-02-24T04:16:51.499Z,9.11
2023-02-24T04:21:54.922Z,9.10
2023-02-24T04:27:01.007Z,8.97
2023-02-24T04:32:07.590Z,9.05
2023-02-24T04:37:09.283Z,8.89
2023-02-24T04:42:10.922Z,8.87
2023-02-24T04:47:12.666Z,8.95
2023-02-24T04:52:15.894Z,8.84
2023-02-24T04:57:17.411Z,8.71
2023-02-24T05:02:20.559Z,8.86
2023-02-24T05:07:22.513Z,8.89
2023-02-24T05:12:24.012Z,8.81
2023-02-24T05:17:25.421Z,8.78
2023-02-24T05:22:28.962Z,8.83
2023-02-24T05:27:30.716Z,8.85
2023-02-24T05:32:34.617Z,8.95
2023-02-24T05:37:42.094Z,8.88
2023-02-24T05:42:45.282Z,8.90
2023-02-24T05:47:47.385Z,8.96
2023-02-24T05:52:48.814Z,8.93
2023-02-24T05:57:50.868Z,8.98
2023-02-24T06:02:52.651Z,9.05
2023-02-24T06:08:04.681Z,8.99
2023-02-24T06:13:07.217Z,8.95
2023-02-24T06:18:11.608Z,8.87
2023-02-24T06:23:13.068Z,8.84
2023-02-24T06:28:14.506Z,8.98
2023-02-24T06:33:16.120Z,8.91
2023-02-24T06:38:17.551Z,8.80
2023-02-24T06:43:19.385Z,9.16
2023-02-24T06:48:22.988Z,8.88
2023-02-24T06:53:26.625Z,8.73
2023-02-24T06:58:28.052Z,8.82
2023-02-24T07:03:47.479Z,8.81
2023-02-24T07:08:49.061Z,8.96
2023-02-24T07:13:54.463Z,9.03
2023-02-24T07:18:57.978Z,9.05
2023-02-24T07:23:59.687Z,8.62
2023-02-24T07:29:04.504Z,8.40
2023-02-24T07:34:06.427Z,8.55
2023-02-24T07:39:08.134Z,8.71
2023-02-24T07:44:10.646Z,8.44
2023-02-24T07:49:19.821Z,8.34
2023-02-24T07:54:23.265Z,8.45
2023-02-24T07:59:30.444Z,8.32
2023-02-24T08:04:33.061Z,8.40
2023-02-24T08:09:46.943Z,8.48
2023-02-24T08:14:51.789Z,8.36
2023-02-24T08:20:13.256Z,8.38
2023-02-24T08:25:19.166Z,8.48
2023-02-24T08:30:23.702Z,8.37
2023-02-24T08:35:35.664Z,8.57
2023-02-24T08:40:50.022Z,8.67
2023-02-24T08:45:59.434Z,8.40
2023-02-24T08:51:02.905Z,8.65
2023-02-24T08:56:09.588Z,8.41
2023-02-24T09:01:19.222Z,8.47
2023-02-24T09:06:28.191Z,8.39
2023-02-24T09:11:29.620Z,8.80
2023-02-24T09:16:31.101Z,8.48
2023-02-24T09:22:10.390Z,8.82
2023-02-24T09:27:17.267Z,8.49
2023-02-24T09:32:18.788Z,8.80
2023-02-24T09:37:26.186Z,8.94
2023-02-24T09:42:34.928Z,8.92
2023-02-24T09:47:57.406Z,8.89
2023-02-24T09:53:13.951Z,8.77
2023-02-24T09:58:41.844Z,8.43
2023-02-24T10:03:48.372Z,8.83
2023-02-24T10:09:03.953Z,8.78
2023-02-24T10:14:19.426Z,8.60
2023-02-24T10:19:26.959Z,8.62
2023-02-24T10:24:41.313Z,8.91
2023-02-24T10:30:19.589Z,8.93
2023-02-24T10:35:25.936Z,8.96
2023-02-24T10:40:45.069Z,8.49
2023-02-24T10:45:47.812Z,7.99
2023-02-24T10:50:56.072Z,8.43
2023-02-24T10:56:22.890Z,8.45
2023-02-24T11:01:46.234Z,8.37
2023-02-24T11:06:55.577Z,8.47
2023-02-24T11:12:17.272Z,8.63
2023-02-24T11:17:26.938Z,8.72
2023-02-24T11:22:34.212Z,8.79
2023-02-24T11:27:35.814Z,8.83
2023-02-24T11:33:14.592Z,8.72
2023-02-24T11:38:45.049Z,8.84
2023-02-24T11:43:57.705Z,8.86
2023-02-24T11:49:01.595Z,8.94
2023-02-24T11:54:12.821Z,8.77
2023-02-24T11:59:32.502Z,8.73
2023-02-24T12:05:00.672Z,8.58
2023-02-24T12:10:16.046Z,8.75
2023-02-24T12:15:32.293Z,8.81
2023-02-24T12:20:40.500Z,8.92
2023-02-24T12:25:59.703Z,8.90
2023-02-24T12:31:01.242Z,9.20
2023-02-24T12:36:20.098Z,9.28
2023-02-24T12:41:46.338Z,9.40
2023-02-24T12:46:58.262Z,9.52
2023-02-24T12:52:19.347Z,9.26
2023-02-24T12:57:48.284Z,9.49
2023-02-24T13:03:10.072Z,9.51
2023-02-24T13:08:29.558Z,9.37
2023-02-24T13:13:40.463Z,9.43
2023-02-24T13:18:42.035Z,9.49
2023-02-24T13:23:56.146Z,9.65
2023-02-24T13:29:02.982Z,9.81
2023-02-24T13:34:15.020Z,9.73
2023-02-24T13:39:31.385Z,9.54
2023-02-24T13:44:33.601Z,9.72
2023-02-24T13:50:06.511Z,9.64
2023-02-24T13:55:07.945Z,9.51
2023-02-24T14:00:12.701Z,9.45
2023-02-24T14:05:25.768Z,9.72
2023-02-24T14:10:34.636Z,9.79
2023-02-24T14:15:36.201Z,9.94
2023-02-24T14:20:39.615Z,9.84
2023-02-24T14:25:41.232Z,9.70
2023-02-24T14:30:42.886Z,9.63
2023-02-24T14:35:47.390Z,9.53
2023-02-24T14:40:48.931Z,9.65
2023-02-24T14:45:52.731Z,9.26
2023-02-24T14:51:01.904Z,9.40
2023-02-24T14:56:06.139Z,9.16
2023-02-24T15:01:22.716Z,9.06
2023-02-24T15:06:29.651Z,8.89
2023-02-24T15:11:33.019Z,8.79
2023-02-24T15:16:40.275Z,8.94
2023-02-24T15:21:42.943Z,9.06
2023-02-24T15:27:01.969Z,8.96
2023-02-24T15:32:07.223Z,8.92
2023-02-24T15:37:24.920Z,8.82
2023-02-24T15:42:33.913Z,8.60
2023-02-24T15:47:44.477Z,8.74
2023-02-24T15:52:46.311Z,8.66
2023-02-24T15:57:57.017Z,8.68
2023-02-24T16:02:58.597Z,8.55
2023-02-24T16:08:00.039Z,8.56
2023-02-24T16:13:02.106Z,8.62
2023-02-24T16:18:04.241Z,8.59
2023-02-24T16:23:05.729Z,8.30
2023-02-24T16:28:08.352Z,8.33
2023-02-24T16:33:13.975Z,8.40
2023-02-24T16:38:18.158Z,8.46
2023-02-24T16:43:19.633Z,8.53
2023-02-24T16:48:26.651Z,8.58
2023-02-24T16:53:28.092Z,8.68
2023-02-24T16:58:29.552Z,8.33
2023-02-24T17:03:51.748Z,8.26
2023-02-24T17:08:53.234Z,8.25
2023-02-24T17:13:54.900Z,8.15
2023-02-24T17:18:56.320Z,8.06
2023-02-24T17:23:57.771Z,7.98
2023-02-24T17:28:59.257Z,7.44
2023-02-24T17:34:01.949Z,7.04
2023-02-24T17:39:03.548Z,7.25
2023-02-24T17:44:04.984Z,7.32
2023-02-24T17:49:06.483Z,7.29
2023-02-24T17:54:08.397Z,7.39
2023-02-24T17:59:09.998Z,7.41
2023-02-24T18:04:14.701Z,7.40
2023-02-24T18:09:16.141Z,7.25
2023-02-24T18:14:17.664Z,7.30
2023-02-24T18:19:19.208Z,7.24
2023-02-24T18:24:22.738Z,7.32
2023-02-24T18:29:24.170Z,7.35
2023-02-24T18:34:25.623Z,7.37
2023-02-24T18:39:28.259Z,7.36
2023-02-24T18:44:29.710Z,7.30
2023-02-24T18:49:31.123Z,7.25
2023-02-24T18:54:34.042Z,7.28
2023-02-24T18:59:35.484Z,7.31
2023-02-24T19:04:36.901Z,7.22
2023-02-24T19:09:41.560Z,7.11
2023-02-24T19:14:44.549Z,6.82
2023-02-24T19:19:46.677Z,7.25
2023-02-24T19:24:48.104Z,6.92
2023-02-24T19:29:49.629Z,6.86
2023-02-24T19:34:51.051Z,6.78
2023-02-24T19:39:52.591Z,6.78
2023-02-24T19:44:54.087Z,6.83
2023-02-24T19:49:55.569Z,6.88
2023-02-24T19:54:57.998Z,7.01
2023-02-24T19:59:59.468Z,7.08
2023-02-24T20:05:01.011Z,7.00
2023-02-24T20:10:02.525Z,7.06
2023-02-24T20:15:05.346Z,7.04
2023-02-24T20:20:07.403Z,6.94
2023-02-24T20:25:09.224Z,6.97
2023-02-24T20:30:11.432Z,6.95
2023-02-24T20:35:12.895Z,6.80
2023-02-24T20:40:14.487Z,6.84
2023-02-24T20:45:16.335Z,6.84
2023-02-24T20:50:18.110Z,6.90
2023-02-24T20:55:19.642Z,6.87
2023-02-24T21:00:21.204Z,7.01
2023-02-24T21:05:28.160Z,6.91
2023-02-24T21:10:29.602Z,6.96
2023-02-24T21:15:31.094Z,6.83
2023-02-24T21:20:32.637Z,6.78
2023-02-24T21:25:34.053Z,6.80
2023-02-24T21:30:35.556Z,6.85
2023-02-24T21:35:36.996Z,6.74
2023-02-24T21:40:38.519Z,6.76
2023-02-24T21:45:39.993Z,6.79
2023-02-24T21:50:41.441Z,6.96
2023-02-24T21:55:43.109Z,6.68
2023-02-24T22:00:44.524Z,6.62
2023-02-24T22:05:49.981Z,6.74
2023-02-24T22:11:01.116Z,6.69
2023-02-24T22:16:05.886Z,6.56
2023-02-24T22:21:12.743Z,6.51
2023-02-24T22:26:15.603Z,6.70
2023-02-24T22:31:20.205Z,6.71
2023-02-24T22:36:28.424Z,6.53
2023-02-24T22:41:32.374Z,5.87
2023-02-24T22:46:36.663Z,6.78
2023-02-24T22:51:38.172Z,6.09
2023-02-24T22:56:39.613Z,5.98
2023-02-24T23:01:42.678Z,6.04
2023-02-24T23:06:44.617Z,5.68
2023-02-24T23:11:46.821Z,5.72
2023-02-24T23:16:54.642Z,6.06
2023-02-24T23:21:57.071Z,5.87
2023-02-24T23:26:58.587Z,5.91
2023-02-24T23:32:00.275Z,5.52
2023-02-24T23:37:01.806Z,5.84
2023-02-24T23:42:03.347Z,5.97
2023-02-24T23:47:05.059Z,5.48
2023-02-24T23:52:06.559Z,5.80
2023-02-24T23:57:07.991Z,5.30
